Time;durP1;ratioP1;P1;durP2;ratioP2;P2;SDS_P1;SDS_P2;PMS_P1;PMS_P2;Temp;Humidity;BMP_temperature;BMP_pressure;BME280_temperature;BME280_humidity;BME280_pressure;Samples;Min_cycle;Max_cycle;Signal;HPM_P1;HPM_P2
2023/09/28 07:12:31;;;;;;;1.00;0.50;;;22.50;68.10;;;;;;6423836;27;20331;-43
2023/09/28 07:15:33;;;;;;;1.30;0.50;;;24.00;66.30;;;;;;6394972;27;20042;-45
2023/09/28 07:18:36;;;;;;;2.20;1.20;;;22.60;65.30;;;;;;6378213;27;20055;-45
2023/09/28 07:21:38;;;;;;;1.65;0.45;;;22.60;65.70;;;;;;6409140;27;20035;-45
2023/09/28 07:24:39;;;;;;;2.15;0.63;;;22.50;65.80;;;;;;6403172;27;20043;-45
2023/09/28 07:27:42;;;;;;;0.80;0.40;;;23.20;65.30;;;;;;6398919;27;20046;-47
2023/09/28 07:30:44;;;;;;;1.52;0.68;;;22.60;65.00;;;;;;6385152;27;20085;-44
2023/09/28 07:33:45;;;;;;;1.80;0.40;;;22.70;65.20;;;;;;6387245;27;20055;-47
2023/09/28 07:36:47;;;;;;;1.33;0.40;;;22.90;65.30;;;;;;6369041;27;20039;-44
2023/09/28 07:39:49;;;;;;;1.45;0.60;;;22.80;64.90;;;;;;6385863;27;20197;-42
2023/09/28 07:42:51;;;;;;;1.55;0.50;;;22.80;64.90;;;;;;6374397;27;20724;-43
2023/09/28 07:45:53;;;;;;;1.10;0.32;;;22.60;64.50;;;;;;6373284;27;20092;-43
2023/09/28 07:48:56;;;;;;;4.45;0.60;;;22.80;64.90;;;;;;6383733;27;20039;-43
2023/09/28 07:51:57;;;;;;;1.23;0.60;;;22.80;64.50;;;;;;6373775;27;20132;-44
2023/09/28 07:54:59;;;;;;;1.70;0.50;;;22.90;64.80;;;;;;6355185;28;20043;-44
2023/09/28 07:58:01;;;;;;;1.67;0.60;;;22.70;64.20;;;;;;6356845;27;20046;-43
2023/09/28 08:01:23;;;;;;;0.85;0.75;;;22.90;64.50;;;;;;6362541;27;20490;-44
2023/09/28 08:04:25;;;;;;;1.05;0.57;;;23.20;64.70;;;;;;6375625;27;20918;-45
2023/09/28 08:07:30;;;;;;;0.90;0.50;;;22.90;64.40;;;;;;6374682;27;20120;-43
2023/09/28 08:10:35;;;;;;;0.68;0.40;;;23.00;64.40;;;;;;6375108;27;20057;-43
2023/09/28 08:13:37;;;;;;;1.05;0.40;;;23.00;64.50;;;;;;6354468;27;20039;-46
2023/09/28 08:16:39;;;;;;;0.80;0.60;;;23.00;64.40;;;;;;6314934;28;20054;-45
2023/09/28 08:19:42;;;;;;;1.58;0.40;;;22.80;64.40;;;;;;6352217;28;20069;-43
2023/09/28 08:22:45;;;;;;;1.20;0.40;;;23.10;64.50;;;;;;6340703;28;20663;-41
2023/09/28 08:25:46;;;;;;;1.33;0.50;;;23.10;64.40;;;;;;6360545;27;20731;-40
2023/09/28 08:28:49;;;;;;;0.93;0.40;;;22.80;65.30;;;;;;6365901;27;20066;-40
2023/09/28 08:31:51;;;;;;;1.60;0.40;;;23.40;66.40;;;;;;6372380;27;20050;-42
2023/09/28 08:34:52;;;;;;;0.95;0.50;;;23.30;65.90;;;;;;6376457;27;20842;-42
2023/09/28 08:37:54;;;;;;;0.95;0.73;;;23.00;66.30;;;;;;6376036;27;20049;-40
2023/09/28 08:41:00;;;;;;;2.08;0.80;;;23.30;81.00;;;;;;6360072;27;20039;-41
2023/09/28 08:44:05;;;;;;;1.50;0.70;;;23.40;67.40;;;;;;6357903;28;20043;-44
2023/09/28 08:47:53;;;;;;;1.30;0.57;;;23.00;65.20;;;;;;6448679;27;20177;-43
2023/09/28 08:51:03;;;;;;;1.48;0.60;;;22.90;64.90;;;;;;6431515;27;20049;-42
2023/09/28 08:54:05;;;;;;;2.28;0.80;;;22.00;85.20;;;;;;6429750;27;20139;-47
2023/09/28 08:59:56;;;;;;;2.15;0.80;;;23.10;65.90;;;;;;6455407;27;20181;-45
2023/09/28 09:03:00;;;;;;;1.65;0.90;;;23.60;65.00;;;;;;6375448;27;20110;-46
2023/09/28 09:06:05;;;;;;;1.20;0.65;;;23.10;64.70;;;;;;6429588;27;20057;-42
2023/09/28 09:09:06;;;;;;;1.52;0.73;;;23.00;64.60;;;;;;6412632;27;20046;-43
2023/09/28 09:12:10;;;;;;;2.13;0.80;;;23.30;65.10;;;;;;6430510;27;20651;-43
2023/09/28 09:15:13;;;;;;;1.90;0.60;;;23.20;64.80;;;;;;6394259;27;20483;-46
2023/09/28 09:18:18;;;;;;;2.20;0.65;;;23.80;65.10;;;;;;6403079;27;20092;-48
2023/09/28 09:21:24;;;;;;;1.80;0.60;;;23.10;64.20;;;;;;6421687;27;20053;-43
2023/09/28 09:24:26;;;;;;;1.27;0.60;;;23.30;65.00;;;;;;6384544;27;20087;-44
2023/09/28 09:27:30;;;;;;;0.98;0.40;;;23.50;64.90;;;;;;6404740;27;20142;-48
2023/09/28 09:30:35;;;;;;;1.73;0.60;;;23.30;65.30;;;;;;6386988;27;20039;-45
2023/09/28 09:33:38;;;;;;;1.48;0.57;;;23.30;70.90;;;;;;6390190;27;20054;-43
2023/09/28 09:36:40;;;;;;;2.22;0.70;;;23.60;65.30;;;;;;6378485;27;20640;-42
2023/09/28 09:41:29;;;;;;;1.02;0.50;;;23.20;61.80;;;;;;6450098;27;20117;-43
2023/09/28 09:44:31;;;;;;;0.88;0.75;;;23.50;85.30;;;;;;6413348;27;20680;-45
2023/09/28 09:47:35;;;;;;;1.20;0.52;;;23.50;93.00;;;;;;6413182;27;20105;-42
2023/09/28 09:50:39;;;;;;;1.40;0.65;;;23.40;81.20;;;;;;6427240;27;20045;-46
2023/09/28 09:53:43;;;;;;;3.97;0.82;;;23.40;79.60;;;;;;6429305;27;20537;-44
2023/09/28 09:56:49;;;;;;;1.30;0.68;;;23.50;66.00;;;;;;6409390;27;20472;-45
2023/09/28 09:59:53;;;;;;;2.08;0.63;;;23.50;65.80;;;;;;6384890;27;20790;-43
2023/09/28 10:04:12;;;;;;;2.53;1.10;;;23.50;62.30;;;;;;6449876;27;20344;-48
2023/09/28 10:07:16;;;;;;;2.55;1.13;;;23.80;62.20;;;;;;6416030;27;20041;-43
2023/09/28 10:10:20;;;;;;;2.38;0.90;;;23.60;61.90;;;;;;6426263;27;20038;-45
2023/09/28 10:13:21;;;;;;;6.60;1.20;;;23.80;61.80;;;;;;6401475;27;20034;-44
2023/09/28 10:16:27;;;;;;;2.45;0.90;;;23.70;61.80;;;;;;6418569;27;20050;-42
2023/09/28 10:19:30;;;;;;;3.03;1.35;;;23.70;61.50;;;;;;6423385;27;20045;-44
2023/09/28 10:22:32;;;;;;;1.90;0.93;;;23.80;61.50;;;;;;6423942;27;20653;-47
2023/09/28 10:25:52;;;;;;;3.10;0.85;;;23.40;61.30;;;;;;6418704;27;20038;-45
2023/09/28 10:29:02;;;;;;;4.63;1.38;;;23.80;61.10;;;;;;6404641;27;20034;-43
2023/09/28 10:32:15;;;;;;;2.40;0.80;;;23.70;61.10;;;;;;6421711;27;20050;-45
2023/09/28 10:35:30;;;;;;;3.60;1.27;;;23.70;60.90;;;;;;6418986;27;20133;-47
2023/09/28 10:38:31;;;;;;;1.83;0.85;;;23.80;60.70;;;;;;6347091;27;20565;-42
2023/09/28 10:41:33;;;;;;;2.80;1.08;;;23.80;60.80;;;;;;6419656;27;20133;-45
2023/09/28 10:44:45;;;;;;;1.85;0.63;;;24.20;60.80;;;;;;6403980;27;20153;-41
2023/09/28 10:47:48;;;;;;;2.42;1.08;;;23.80;60.30;;;;;;6396208;27;20049;-42
2023/09/28 10:50:54;;;;;;;3.28;1.17;;;23.90;60.50;;;;;;6396797;27;20046;-42
2023/09/28 10:53:56;;;;;;;3.17;1.08;;;23.80;60.20;;;;;;6399133;27;20038;-45
2023/09/28 10:57:02;;;;;;;2.95;1.15;;;24.10;60.50;;;;;;6407054;27;20697;-42
2023/09/28 11:00:12;;;;;;;3.03;0.80;;;23.80;60.70;;;;;;6412434;27;20081;-41
2023/09/28 11:03:16;;;;;;;1.60;0.90;;;24.10;60.10;;;;;;6406046;27;20054;-42
2023/09/28 11:06:18;;;;;;;2.97;0.90;;;23.50;59.90;;;;;;6410589;27;20038;-41
2023/09/28 11:09:20;;;;;;;2.20;0.88;;;23.80;60.10;;;;;;6425051;27;20137;-40
2023/09/28 11:12:22;;;;;;;2.53;0.98;;;23.60;59.80;;;;;;6425971;27;20508;-41
2023/09/28 11:15:24;;;;;;;2.70;0.90;;;23.80;60.10;;;;;;6411987;27;20042;-43
2023/09/28 11:18:27;;;;;;;2.83;0.80;;;23.90;60.10;;;;;;6412901;27;20042;-40
2023/09/28 11:21:31;;;;;;;1.17;0.60;;;23.90;60.00;;;;;;6407286;27;20728;-45
2023/09/28 11:24:32;;;;;;;2.25;0.80;;;24.00;60.00;;;;;;6394975;27;20038;-44
2023/09/28 11:27:34;;;;;;;2.70;0.90;;;24.00;60.20;;;;;;6410309;27;20114;-42
2023/09/28 11:30:36;;;;;;;2.58;1.05;;;23.60;59.90;;;;;;6390266;27;20042;-42
2023/09/28 11:33:40;;;;;;;1.83;0.98;;;24.00;60.20;;;;;;6383684;27;20047;-43
2023/09/28 11:36:42;;;;;;;2.92;0.90;;;23.90;60.50;;;;;;6351611;27;20070;-41
2023/09/28 11:39:44;;;;;;;2.10;0.70;;;24.00;60.30;;;;;;6387214;27;20065;-41
2023/09/28 11:42:48;;;;;;;1.30;0.45;;;23.80;60.40;;;;;;6391663;27;20045;-42
2023/09/28 11:45:56;;;;;;;3.17;1.27;;;24.00;60.70;;;;;;6392530;27;20056;-43
2023/09/28 11:49:05;;;;;;;2.15;0.80;;;24.00;60.30;;;;;;6388829;27;20822;-45
2023/09/28 11:52:07;;;;;;;0.90;0.47;;;24.10;61.30;;;;;;6383402;27;20050;-46
2023/09/28 11:55:14;;;;;;;2.42;0.60;;;23.90;61.40;;;;;;6384408;27;20505;-46
2023/09/28 11:58:21;;;;;;;1.00;0.60;;;24.00;61.50;;;;;;6404442;27;20051;-41
2023/09/28 12:01:23;;;;;;;1.58;0.50;;;24.10;61.90;;;;;;6395721;27;20506;-47
2023/09/28 12:04:27;;;;;;;2.80;1.00;;;24.00;62.20;;;;;;6384645;27;20095;-41
2023/09/28 12:07:29;;;;;;;1.58;0.63;;;23.80;62.20;;;;;;6396963;27;20921;-42
2023/09/28 12:10:30;;;;;;;0.93;0.45;;;24.00;62.50;;;;;;6392252;27;20038;-45
2023/09/28 12:13:32;;;;;;;1.20;0.68;;;24.00;62.80;;;;;;6387637;27;20103;-47
2023/09/28 12:16:33;;;;;;;1.30;0.60;;;24.10;63.00;;;;;;6389733;27;20039;-41
2023/09/28 12:19:38;;;;;;;2.03;0.50;;;24.20;63.20;;;;;;6387449;27;20062;-43
2023/09/28 12:22:40;;;;;;;1.70;0.50;;;24.20;63.40;;;;;;6401017;27;20149;-43
2023/09/28 12:25:42;;;;;;;1.75;0.75;;;24.10;63.40;;;;;;6390470;27;20043;-42
2023/09/28 12:28:44;;;;;;;0.63;0.60;;;24.10;63.70;;;;;;6391665;27;20045;-42
2023/09/28 12:31:45;;;;;;;0.45;0.30;;;24.20;63.80;;;;;;6367467;27;20054;-44
2023/09/28 12:34:49;;;;;;;0.85;0.50;;;24.10;63.90;;;;;;6394100;27;20857;-47
2023/09/28 12:37:51;;;;;;;1.20;0.55;;;24.30;64.20;;;;;;6412067;27;20072;-44
2023/09/28 12:40:53;;;;;;;0.50;0.40;;;24.30;64.30;;;;;;6394220;27;20508;-43
2023/09/28 12:43:55;;;;;;;0.65;0.40;;;24.10;64.30;;;;;;6397015;27;20765;-43
2023/09/28 12:46:57;;;;;;;0.60;0.50;;;24.10;64.50;;;;;;6396241;27;20039;-44
2023/09/28 12:50:02;;;;;;;1.30;0.60;;;24.30;64.70;;;;;;6386690;27;20109;-42
2023/09/28 12:53:04;;;;;;;1.45;0.40;;;24.20;64.70;;;;;;6376560;27;20046;-42
2023/09/28 12:56:06;;;;;;;0.98;0.50;;;24.30;64.90;;;;;;6384471;27;20145;-45
2023/09/28 12:59:08;;;;;;;0.95;0.40;;;24.20;64.90;;;;;;6384418;27;20089;-41
2023/09/28 13:02:10;;;;;;;1.00;0.50;;;24.30;65.10;;;;;;6390719;27;20046;-44
2023/09/28 13:05:13;;;;;;;1.02;0.40;;;24.20;65.20;;;;;;6408518;27;20038;-43
2023/09/28 13:08:16;;;;;;;0.93;0.60;;;24.10;65.60;;;;;;6389636;27;20653;-43
2023/09/28 13:11:18;;;;;;;0.52;0.40;;;24.30;65.30;;;;;;6384245;27;20457;-44
2023/09/28 13:14:25;;;;;;;0.63;0.30;;;24.30;65.60;;;;;;6380531;27;20811;-43
2023/09/28 13:17:30;;;;;;;0.60;0.40;;;24.40;65.70;;;;;;6382569;27;20038;-43
2023/09/28 13:20:33;;;;;;;0.70;0.47;;;24.30;65.80;;;;;;6387724;27;20165;-42
2023/09/28 13:23:38;;;;;;;1.58;0.30;;;24.20;65.90;;;;;;6406726;27;20070;-43
2023/09/28 13:26:39;;;;;;;0.30;0.30;;;24.60;66.30;;;;;;6382428;27;20161;-43
2023/09/28 13:29:41;;;;;;;0.70;0.40;;;24.40;66.30;;;;;;6382954;27;20042;-46
2023/09/28 13:32:43;;;;;;;1.15;0.63;;;24.30;66.40;;;;;;6394487;27;20058;-43
2023/09/28 13:35:45;;;;;;;0.60;0.38;;;24.40;66.50;;;;;;6383517;27;20129;-42
2023/09/28 13:38:50;;;;;;;0.90;0.40;;;24.60;66.70;;;;;;6384758;27;20046;-44
2023/09/28 13:41:57;;;;;;;0.95;0.30;;;24.60;66.80;;;;;;6391240;27;20103;-42
2023/09/28 13:44:59;;;;;;;0.82;0.30;;;24.20;66.70;;;;;;6387217;27;20039;-44
2023/09/28 13:48:02;;;;;;;0.90;0.40;;;24.30;67.00;;;;;;6388027;27;20053;-43
2023/09/28 13:51:04;;;;;;;0.90;0.52;;;24.40;67.10;;;;;;6384432;27;20062;-44
2023/09/28 13:54:08;;;;;;;0.20;0.20;;;24.50;67.30;;;;;;6381174;27;20049;-46
2023/09/28 13:57:09;;;;;;;0.35;0.30;;;24.40;67.30;;;;;;6391904;27;20049;-46
2023/09/28 14:00:21;;;;;;;0.75;0.45;;;24.40;67.50;;;;;;6407664;27;20038;-44
2023/09/28 14:03:23;;;;;;;0.40;0.40;;;24.80;67.80;;;;;;6400987;27;20114;-42
2023/09/28 14:06:25;;;;;;;0.57;0.30;;;24.40;67.70;;;;;;6385275;27;20699;-45
2023/09/28 14:09:31;;;;;;;0.57;0.40;;;24.40;67.90;;;;;;6398709;27;20047;-42
2023/09/28 14:12:32;;;;;;;0.93;0.40;;;24.40;68.10;;;;;;6388648;27;20042;-44
2023/09/28 14:15:36;;;;;;;0.60;0.40;;;24.40;68.90;;;;;;6400426;27;20042;-45
2023/09/28 14:18:38;;;;;;;0.80;0.40;;;24.50;68.40;;;;;;6400071;27;20050;-44
2023/09/28 14:21:39;;;;;;;1.20;0.60;;;24.70;68.50;;;;;;6380962;27;20034;-46
2023/09/28 14:24:42;;;;;;;0.68;0.47;;;24.40;68.60;;;;;;6403870;27;20050;-44
2023/09/28 14:27:46;;;;;;;0.40;0.20;;;23.70;68.40;;;;;;6405053;27;20038;-42
2023/09/28 14:30:48;;;;;;;0.85;0.45;;;24.20;68.70;;;;;;6396584;27;20042;-46
2023/09/28 14:33:50;;;;;;;0.60;0.40;;;24.40;69.00;;;;;;6380714;27;20043;-43
2023/09/28 14:36:59;;;;;;;0.60;0.30;;;24.40;69.00;;;;;;6381339;27;20046;-43
2023/09/28 14:40:02;;;;;;;0.77;0.40;;;24.30;69.20;;;;;;6385492;27;20043;-45
2023/09/28 14:43:04;;;;;;;1.45;0.50;;;24.60;69.20;;;;;;6363616;27;20467;-44
2023/09/28 14:46:09;;;;;;;0.57;0.43;;;24.40;69.30;;;;;;6383579;27;20838;-45
2023/09/28 14:49:12;;;;;;;0.80;0.40;;;24.50;69.10;;;;;;6381939;27;20049;-43
2023/09/28 14:52:14;;;;;;;0.73;0.40;;;24.40;69.50;;;;;;6390379;27;20573;-44
2023/09/28 14:55:16;;;;;;;0.50;0.30;;;24.40;69.70;;;;;;6385414;27;20046;-42
2023/09/28 14:58:17;;;;;;;0.65;0.50;;;24.50;69.80;;;;;;6399024;27;20074;-45
2023/09/28 15:01:19;;;;;;;0.65;0.30;;;24.50;69.90;;;;;;6391169;27;20039;-43
2023/09/28 15:04:20;;;;;;;0.45;0.28;;;24.50;70.00;;;;;;6383147;27;20215;-43
2023/09/28 15:07:22;;;;;;;0.47;0.40;;;24.90;70.30;;;;;;6385092;27;20828;-45
2023/09/28 15:10:24;;;;;;;0.50;0.30;;;24.50;70.10;;;;;;6409479;27;20046;-42
2023/09/28 15:13:26;;;;;;;0.70;0.50;;;24.30;70.10;;;;;;6400745;27;20054;-42
2023/09/28 15:16:32;;;;;;;0.55;0.40;;;24.40;70.30;;;;;;6412140;27;20551;-41
2023/09/28 15:19:34;;;;;;;0.75;0.30;;;24.50;70.50;;;;;;6412641;27;20108;-46
2023/09/28 15:22:35;;;;;;;0.40;0.30;;;24.30;70.60;;;;;;6399032;27;20076;-48
2023/09/28 15:25:38;;;;;;;0.90;0.38;;;24.50;71.00;;;;;;6393020;27;20045;-48
2023/09/28 15:28:42;;;;;;;0.65;0.40;;;24.60;71.00;;;;;;6396101;27;20581;-43
2023/09/28 15:31:43;;;;;;;3.05;0.65;;;24.90;71.30;;;;;;6389983;27;20424;-44
2023/09/28 15:34:48;;;;;;;0.50;0.43;;;24.50;71.40;;;;;;6408271;27;20042;-48
2023/09/28 15:37:52;;;;;;;1.55;0.55;;;24.40;71.30;;;;;;6409939;27;20042;-44
2023/09/28 15:40:54;;;;;;;1.20;0.47;;;24.50;71.50;;;;;;6398417;27;20464;-43
2023/09/28 15:43:57;;;;;;;0.65;0.40;;;24.90;71.80;;;;;;6394415;27;20731;-43
2023/09/28 15:46:58;;;;;;;1.42;0.40;;;24.40;71.60;;;;;;6409666;27;20034;-51
2023/09/28 15:50:03;;;;;;;0.60;0.43;;;24.60;71.80;;;;;;6408884;27;20038;-42
2023/09/28 15:53:05;;;;;;;0.75;0.40;;;24.60;71.80;;;;;;6397503;27;20060;-46
2023/09/28 15:56:08;;;;;;;0.70;0.30;;;24.50;71.90;;;;;;6380125;27;20042;-45
2023/09/28 15:59:11;;;;;;;1.15;0.60;;;24.50;72.00;;;;;;6406538;27;20047;-42
2023/09/28 16:02:13;;;;;;;0.75;0.60;;;24.70;72.30;;;;;;6407123;27;20054;-44
2023/09/28 16:05:15;;;;;;;1.75;0.55;;;24.70;72.40;;;;;;6386898;27;20043;-42
2023/09/28 16:08:17;;;;;;;0.55;0.38;;;24.50;72.20;;;;;;6377609;27;20844;-40
2023/09/28 16:11:19;;;;;;;0.57;0.43;;;24.30;72.10;;;;;;6377066;27;20184;-42
2023/09/28 16:14:21;;;;;;;0.52;0.40;;;24.40;72.30;;;;;;6371527;27;20118;-42
2023/09/28 16:17:28;;;;;;;0.50;0.30;;;24.50;72.40;;;;;;6373370;27;20045;-45
2023/09/28 16:20:30;;;;;;;0.70;0.40;;;24.70;72.30;;;;;;6387416;27;20423;-43
2023/09/28 16:23:32;;;;;;;0.50;0.28;;;24.50;72.50;;;;;;6406085;27;20502;-45
2023/09/28 16:26:35;;;;;;;0.73;0.40;;;24.50;72.70;;;;;;6406126;27;20053;-44
2023/09/28 16:29:36;;;;;;;1.85;0.52;;;24.60;72.90;;;;;;6408322;27;20121;-44
2023/09/28 16:32:38;;;;;;;1.10;0.22;;;24.50;73.00;;;;;;6406031;27;20046;-46
2023/09/28 16:35:40;;;;;;;0.50;0.30;;;24.60;73.00;;;;;;6385308;27;20614;-44
2023/09/28 16:38:42;;;;;;;0.47;0.25;;;24.40;73.00;;;;;;6381424;27;20038;-45
2023/09/28 16:41:44;;;;;;;0.63;0.40;;;24.50;73.10;;;;;;6380941;27;20076;-40
2023/09/28 16:44:46;;;;;;;0.95;0.20;;;24.60;73.20;;;;;;6389899;27;20042;-43
2023/09/28 16:47:47;;;;;;;0.47;0.30;;;24.50;73.20;;;;;;6406407;27;20733;-46
2023/09/28 16:50:49;;;;;;;0.60;0.20;;;24.50;73.30;;;;;;6405518;27;20034;-40
2023/09/28 16:53:53;;;;;;;0.38;0.30;;;24.50;73.30;;;;;;6399450;27;20108;-43
2023/09/28 16:56:55;;;;;;;0.47;0.20;;;24.70;73.40;;;;;;6409644;27;20706;-41
2023/09/28 16:59:57;;;;;;;1.20;0.30;;;23.80;73.00;;;;;;6409870;27;20120;-45
2023/09/28 17:02:59;;;;;;;0.20;0.20;;;24.60;73.40;;;;;;6410744;27;20046;-42
2023/09/28 17:06:03;;;;;;;0.20;0.20;;;24.30;73.20;;;;;;6410088;27;20680;-41
2023/09/28 17:09:04;;;;;;;0.55;0.30;;;24.50;73.20;;;;;;6407618;27;20038;-44
2023/09/28 17:12:07;;;;;;;0.40;0.20;;;24.50;73.30;;;;;;6385990;27;20062;-44
2023/09/28 17:15:10;;;;;;;0.28;0.20;;;24.60;73.30;;;;;;6380036;27;20047;-41
2023/09/28 17:18:14;;;;;;;0.30;0.30;;;24.60;73.20;;;;;;6380534;27;20051;-46
2023/09/28 17:21:23;;;;;;;0.50;0.30;;;25.00;73.20;;;;;;6381745;27;20118;-44
2023/09/28 17:24:25;;;;;;;0.65;0.30;;;24.70;73.20;;;;;;6384158;27;20051;-42
2023/09/28 17:27:27;;;;;;;0.40;0.20;;;24.50;73.00;;;;;;6383996;27;20043;-45
2023/09/28 17:30:28;;;;;;;0.40;0.20;;;24.50;72.90;;;;;;6384019;27;20050;-42
2023/09/28 17:33:31;;;;;;;0.70;0.40;;;24.90;73.10;;;;;;6385181;27;20054;-42
2023/09/28 17:36:33;;;;;;;0.50;0.35;;;24.80;72.90;;;;;;6384258;27;20050;-45
2023/09/28 17:39:34;;;;;;;0.40;0.30;;;25.00;73.00;;;;;;6384055;27;20064;-42
2023/09/28 17:42:37;;;;;;;0.35;0.30;;;24.70;72.70;;;;;;6385886;27;20215;-44
2023/09/28 17:45:39;;;;;;;0.30;0.20;;;24.40;72.40;;;;;;6386310;27;20043;-44
2023/09/28 17:48:43;;;;;;;0.68;0.30;;;24.60;72.40;;;;;;6386865;27;20157;-42
2023/09/28 17:51:48;;;;;;;0.50;0.30;;;24.50;72.30;;;;;;6382617;27;20119;-42
2023/09/28 17:54:50;;;;;;;0.30;0.30;;;24.40;72.10;;;;;;6384645;27;20078;-43
2023/09/28 17:57:53;;;;;;;1.08;0.40;;;24.40;72.00;;;;;;6386471;27;20046;-41
2023/09/28 18:00:54;;;;;;;0.70;0.40;;;24.50;71.90;;;;;;6386770;27;20043;-42
2023/09/28 18:03:56;;;;;;;0.32;0.32;;;24.40;71.80;;;;;;6403859;27;20042;-44
2023/09/28 18:06:58;;;;;;;0.50;0.32;;;25.20;72.20;;;;;;6411736;27;20257;-41
2023/09/28 18:10:02;;;;;;;0.40;0.30;;;24.50;71.70;;;;;;6412856;27;20121;-43
2023/09/28 18:13:04;;;;;;;0.95;0.52;;;24.40;71.50;;;;;;6412138;27;20038;-43
2023/09/28 18:16:06;;;;;;;0.60;0.47;;;24.30;71.40;;;;;;6412531;27;20050;-43
2023/09/28 18:19:07;;;;;;;0.75;0.68;;;24.30;71.40;;;;;;6412921;27;20431;-41
2023/09/28 18:22:09;;;;;;;0.47;0.30;;;24.30;71.30;;;;;;6412132;27;20050;-44
2023/09/28 18:25:11;;;;;;;0.73;0.50;;;24.30;71.20;;;;;;6415482;27;20137;-44
2023/09/28 18:28:13;;;;;;;1.17;0.60;;;24.20;71.20;;;;;;6417097;27;20042;-41
2023/09/28 18:31:15;;;;;;;1.00;0.45;;;24.70;71.30;;;;;;6417007;27;20050;-41
2023/09/28 18:34:16;;;;;;;0.63;0.50;;;24.40;71.10;;;;;;6416450;27;20061;-43
2023/09/28 18:37:18;;;;;;;0.90;0.40;;;24.30;71.00;;;;;;6413193;27;20038;-43
2023/09/28 18:40:22;;;;;;;0.60;0.40;;;24.30;70.90;;;;;;6399542;27;20039;-45
2023/09/28 18:43:26;;;;;;;0.47;0.32;;;24.30;70.80;;;;;;6398884;27;20761;-43
2023/09/28 18:46:28;;;;;;;0.70;0.60;;;24.60;70.90;;;;;;6416167;27;20047;-41
2023/09/28 18:49:34;;;;;;;0.50;0.30;;;24.50;70.90;;;;;;6403618;27;20087;-42
2023/09/28 18:52:38;;;;;;;0.40;0.30;;;24.20;70.60;;;;;;6396448;27;20138;-42
2023/09/28 18:55:42;;;;;;;0.60;0.38;;;24.30;70.60;;;;;;6397700;27;20103;-43
2023/09/28 18:58:44;;;;;;;0.70;0.57;;;24.50;70.60;;;;;;6396560;27;20039;-44
2023/09/28 19:01:46;;;;;;;0.30;0.20;;;24.30;70.40;;;;;;6406040;27;20061;-41
2023/09/28 19:04:47;;;;;;;0.55;0.40;;;24.60;70.50;;;;;;6392779;27;20042;-44
2023/09/28 19:07:49;;;;;;;0.50;0.32;;;24.30;70.30;;;;;;6389253;27;20039;-41
2023/09/28 19:10:56;;;;;;;0.50;0.40;;;24.30;70.20;;;;;;6408805;27;20587;-46
2023/09/28 19:13:58;;;;;;;0.20;0.20;;;24.70;70.30;;;;;;6401875;27;20058;-42
2023/09/28 19:17:00;;;;;;;0.63;0.40;;;24.30;70.20;;;;;;6394610;27;20049;-41
2023/09/28 19:20:01;;;;;;;0.60;0.40;;;24.40;70.20;;;;;;6397384;27;20042;-41
2023/09/28 19:23:03;;;;;;;0.50;0.30;;;24.30;70.10;;;;;;6394312;27;20067;-46
2023/09/28 19:26:05;;;;;;;0.52;0.40;;;24.40;70.10;;;;;;6395634;27;20103;-43
2023/09/28 19:29:07;;;;;;;0.68;0.30;;;24.30;70.00;;;;;;6392771;27;20051;-42
2023/09/28 19:32:11;;;;;;;0.38;0.28;;;24.30;70.00;;;;;;6395649;27;20070;-43
2023/09/28 19:35:14;;;;;;;0.55;0.40;;;24.20;70.10;;;;;;6388565;27;20052;-42
2023/09/28 19:38:16;;;;;;;0.20;0.20;;;24.30;70.00;;;;;;6389361;27;20058;-42
2023/09/28 19:41:22;;;;;;;0.30;0.22;;;24.30;69.90;;;;;;6399152;27;20038;-45
2023/09/28 19:44:25;;;;;;;0.47;0.35;;;24.20;69.80;;;;;;6396844;27;20868;-43
2023/09/28 19:47:27;;;;;;;0.28;0.20;;;24.20;69.90;;;;;;6400026;27;20042;-41
2023/09/28 19:50:29;;;;;;;0.50;0.30;;;24.20;69.90;;;;;;6399223;27;20073;-41
2023/09/28 19:53:30;;;;;;;0.80;0.40;;;24.30;70.10;;;;;;6400248;27;20046;-44
2023/09/28 19:56:32;;;;;;;0.73;0.40;;;24.30;70.10;;;;;;6399475;27;20042;-44
2023/09/28 19:59:34;;;;;;;0.50;0.30;;;24.10;69.90;;;;;;6399648;27;20035;-42
2023/09/28 20:02:39;;;;;;;0.32;0.22;;;24.10;70.00;;;;;;6392102;27;20058;-46
2023/09/28 20:05:43;;;;;;;0.80;0.40;;;24.30;70.00;;;;;;6395800;27;20042;-43
2023/09/28 20:08:45;;;;;;;0.50;0.30;;;24.30;70.10;;;;;;6400645;27;20472;-43
2023/09/28 20:11:47;;;;;;;0.50;0.50;;;24.30;70.20;;;;;;6397842;27;20087;-41
2023/09/28 20:14:49;;;;;;;0.95;0.50;;;24.20;70.20;;;;;;6394994;27;20046;-41
2023/09/28 20:17:50;;;;;;;0.45;0.30;;;24.00;70.10;;;;;;6396579;27;20035;-41
2023/09/28 20:20:54;;;;;;;0.30;0.28;;;24.20;70.20;;;;;;6393599;27;20090;-43
2023/09/28 20:23:56;;;;;;;0.40;0.38;;;24.20;70.20;;;;;;6394419;27;20069;-43
2023/09/28 20:26:58;;;;;;;0.60;0.43;;;24.10;70.10;;;;;;6398674;27;20069;-42
2023/09/28 20:30:00;;;;;;;0.65;0.52;;;24.20;70.20;;;;;;6400041;27;20111;-44
2023/09/28 20:33:07;;;;;;;0.98;0.57;;;24.20;70.30;;;;;;6382845;27;20070;-43
2023/09/28 20:36:09;;;;;;;0.60;0.38;;;23.90;70.20;;;;;;6382998;27;20095;-42
2023/09/28 20:39:14;;;;;;;0.63;0.45;;;24.30;70.40;;;;;;6383997;27;20030;-41
2023/09/28 20:42:16;;;;;;;0.85;0.63;;;24.20;70.50;;;;;;6386113;27;20039;-42
2023/09/28 20:45:21;;;;;;;1.45;0.60;;;24.30;70.70;;;;;;6384448;27;20038;-42
2023/09/28 20:48:23;;;;;;;0.80;0.50;;;24.20;70.00;;;;;;6385743;27;20042;-45
2023/09/28 20:51:25;;;;;;;0.95;0.60;;;24.10;70.60;;;;;;6386263;27;20050;-42
2023/09/28 20:54:26;;;;;;;0.73;0.52;;;24.20;70.70;;;;;;6399593;27;20038;-42
2023/09/28 20:57:28;;;;;;;0.75;0.55;;;24.10;70.80;;;;;;6399837;27;20050;-41
2023/09/28 21:00:30;;;;;;;1.00;0.70;;;24.20;70.80;;;;;;6401642;27;20091;-43
2023/09/28 21:03:31;;;;;;;0.82;0.52;;;24.20;70.80;;;;;;6399075;27;20788;-43
2023/09/28 21:06:35;;;;;;;1.30;0.70;;;24.30;71.00;;;;;;6399093;27;20122;-43
2023/09/28 21:09:36;;;;;;;0.90;0.50;;;24.20;70.90;;;;;;6395653;27;20046;-46
2023/09/28 21:12:38;;;;;;;2.20;0.80;;;24.20;71.10;;;;;;6395942;27;20066;-41
2023/09/28 21:15:40;;;;;;;1.52;0.63;;;24.10;71.10;;;;;;6397753;27;20047;-41
2023/09/28 21:18:41;;;;;;;1.38;0.70;;;24.10;71.20;;;;;;6396445;27;20030;-43
2023/09/28 21:21:43;;;;;;;2.05;0.93;;;24.00;71.50;;;;;;6385883;27;20765;-43
2023/09/28 21:24:46;;;;;;;1.30;0.82;;;23.90;71.40;;;;;;6394650;27;20077;-41
2023/09/28 21:27:51;;;;;;;1.88;0.77;;;24.40;71.90;;;;;;6391856;27;20095;-41
2023/09/28 21:30:53;;;;;;;2.13;1.20;;;24.00;71.80;;;;;;6400897;27;20047;-46
2023/09/28 21:33:54;;;;;;;3.25;1.10;;;24.20;71.90;;;;;;6402605;27;20559;-42
2023/09/28 21:36:56;;;;;;;2.15;0.88;;;23.80;71.90;;;;;;6394006;27;20038;-43
2023/09/28 21:39:57;;;;;;;2.10;1.17;;;24.10;72.10;;;;;;6391174;27;20538;-43
2023/09/28 21:42:59;;;;;;;3.38;0.90;;;23.90;72.10;;;;;;6399245;27;20046;-42
2023/09/28 21:46:01;;;;;;;1.55;0.88;;;23.90;72.30;;;;;;6390563;27;20042;-42
2023/09/28 21:49:03;;;;;;;1.92;1.10;;;23.70;72.20;;;;;;6399032;27;20834;-42
2023/09/28 21:52:05;;;;;;;3.20;1.30;;;23.70;72.30;;;;;;6400210;27;20038;-41
2023/09/28 21:55:10;;;;;;;2.10;1.02;;;23.90;72.40;;;;;;6386557;27;20069;-40
2023/09/28 21:58:15;;;;;;;2.78;1.05;;;23.90;72.60;;;;;;6390250;27;20045;-43
2023/09/28 22:01:17;;;;;;;2.53;1.00;;;23.80;72.70;;;;;;6404227;27;20147;-42
2023/09/28 22:04:19;;;;;;;1.67;0.88;;;23.80;72.70;;;;;;6402854;27;20046;-46
2023/09/28 22:07:21;;;;;;;2.55;1.20;;;23.70;72.80;;;;;;6439379;27;20065;-42
2023/09/28 22:10:25;;;;;;;2.63;1.05;;;23.90;73.00;;;;;;6438563;27;20057;-44
2023/09/28 22:13:26;;;;;;;3.65;0.93;;;23.80;73.00;;;;;;6436175;27;20057;-42
2023/09/28 22:16:31;;;;;;;3.10;1.20;;;24.30;73.40;;;;;;6416116;27;20058;-44
2023/09/28 22:19:33;;;;;;;2.22;1.05;;;23.70;73.00;;;;;;6389726;27;20047;-40
2023/09/28 22:22:36;;;;;;;2.30;1.42;;;24.00;73.20;;;;;;6408973;27;20043;-45
2023/09/28 22:25:37;;;;;;;2.05;1.20;;;23.80;73.30;;;;;;6400581;27;20042;-41
2023/09/28 22:28:39;;;;;;;2.20;1.00;;;23.60;73.40;;;;;;6410925;27;20134;-41
2023/09/28 22:31:43;;;;;;;2.20;1.17;;;23.80;73.40;;;;;;6394251;27;20058;-41
2023/09/28 22:34:48;;;;;;;2.50;1.10;;;23.70;73.60;;;;;;6393449;27;20091;-43
2023/09/28 22:37:49;;;;;;;2.78;1.30;;;23.80;73.60;;;;;;6394644;27;20115;-41
2023/09/28 22:40:51;;;;;;;4.97;1.58;;;23.70;74.00;;;;;;6393511;27;20056;-42
2023/09/28 22:43:53;;;;;;;3.20;1.30;;;23.70;73.90;;;;;;6394134;27;20692;-41
2023/09/28 22:46:55;;;;;;;2.13;1.00;;;23.70;74.00;;;;;;6417219;27;20556;-41
2023/09/28 22:49:57;;;;;;;2.45;1.30;;;24.20;74.40;;;;;;6410164;27;20626;-41
2023/09/28 22:52:58;;;;;;;3.63;1.33;;;23.60;74.20;;;;;;6428729;27;20050;-44
2023/09/28 22:56:00;;;;;;;4.57;1.67;;;23.80;74.30;;;;;;6438255;27;20090;-42
2023/09/28 22:59:01;;;;;;;2.90;1.30;;;23.40;74.20;;;;;;6432475;27;20842;-45
2023/09/28 23:02:03;;;;;;;2.90;1.23;;;23.40;74.30;;;;;;6392858;27;20595;-44
2023/09/28 23:05:06;;;;;;;2.88;1.00;;;23.80;74.60;;;;;;6402558;27;20124;-43
2023/09/28 23:08:08;;;;;;;3.08;1.40;;;23.50;74.50;;;;;;6386599;27;20508;-42
2023/09/28 23:11:13;;;;;;;4.20;1.42;;;23.30;74.60;;;;;;6395515;27;20494;-45